Time;durP1;ratioP1;P1;durP2;ratioP2;P2;SDS_P1;SDS_P2;PMS_P1;PMS_P2;Temp;Humidity;BMP_temperature;BMP_pressure;BME280_temperature;BME280_humidity;BME280_pressure;Samples;Min_cycle;Max_cycle;Signal;HPM_P1;HPM_P2
2023/09/09 00:19:48;;;;;;;;;;;;;;;;;;;;;
2023/09/09 00:59:18;;;;;;;24.02;16.98;;;17.80;99.90;;;;;;6273062;22;20027;-87
2023/09/09 01:03:10;;;;;;;;;;;;;;;;;;;;;
2023/09/09 01:06:14;;;;;;;27.05;20.02;;;17.70;99.90;;;;;;6190221;22;20047;-87
2023/09/09 01:18:33;;;;;;;25.73;19.45;;;17.50;99.90;;;;;;6151646;23;20024;-87
2023/09/09 01:21:35;;;;;;;26.60;19.10;;;17.50;99.90;;;;;;6253080;22;20344;-87
2023/09/09 01:24:20;;;;;;;25.92;19.58;;;17.50;99.90;;;;;;6226001;22;20026;-87
2023/09/09 01:26:51;;;;;;;26.40;19.83;;;17.50;99.90;;;;;;6248171;22;20360;-87
2023/09/09 01:29:57;;;;;;;26.45;19.55;;;17.50;99.90;;;;;;6248541;22;20008;-87
2023/09/09 01:36:25;;;;;;;25.30;20.05;;;17.70;99.90;;;;;;6225664;22;20031;-87
2023/09/09 01:42:51;;;;;;;27.83;19.95;;;17.60;99.90;;;;;;6157723;23;20017;-87
2023/09/09 02:15:01;;;;;;;;;;;;;;;;;;;;;
2023/09/09 02:29:54;;;;;;;25.42;19.50;;;17.10;99.90;;;;;;6278902;22;20043;-87
2023/09/09 02:46:30;;;;;;;28.52;20.73;;;17.10;99.90;;;;;;6094834;23;20022;-87
2023/09/09 02:48:58;;;;;;;26.92;19.90;;;17.00;99.90;;;;;;6069084;23;20026;-87
2023/09/09 03:09:59;;;;;;;35.35;25.70;;;16.90;99.90;;;;;;6245306;23;20020;-87
2023/09/09 03:21:20;;;;;;;32.95;25.25;;;16.80;99.90;;;;;;6245794;23;20034;-87
2023/09/09 03:28:05;;;;;;;31.48;23.88;;;16.60;99.90;;;;;;6246446;23;20022;-87
2023/09/09 03:31:07;;;;;;;31.90;24.50;;;16.20;99.90;;;;;;6218904;23;20348;-87
2023/09/09 03:46:23;;;;;;;;;;;;;;;;;;;;;
2023/09/09 04:39:29;;;;;;;48.67;35.53;;;16.40;99.90;;;;;;6058664;23;20029;-86
2023/09/09 04:42:12;;;;;;;48.03;35.55;;;16.40;99.90;;;;;;6161736;23;20450;-86
2023/09/09 04:45:08;;;;;;;45.47;35.50;;;16.40;99.90;;;;;;6160626;23;20024;-87
2023/09/09 04:47:59;;;;;;;46.25;35.08;;;16.40;99.90;;;;;;6197405;22;20019;-87
2023/09/09 04:51:03;;;;;;;48.42;36.83;;;16.40;99.90;;;;;;6277060;22;20246;-86
2023/09/09 04:53:31;;;;;;;;;;;16.70;99.90;;;;;;6280699;22;20019;-86
2023/09/09 04:56:19;;;;;;;51.35;38.70;;;16.40;99.90;;;;;;6276704;22;19954;-86
2023/09/09 04:59:09;;;;;;;51.03;38.38;;;16.40;99.90;;;;;;6277161;22;20448;-86
2023/09/09 05:01:44;;;;;;;53.33;39.65;;;16.40;99.90;;;;;;6273666;22;20016;-86
2023/09/09 05:04:18;;;;;;;52.25;38.95;;;16.40;99.90;;;;;;6274871;22;20022;-85
2023/09/09 05:07:02;;;;;;;;;;;16.40;99.90;;;;;;6276375;22;20016;-86
2023/09/09 05:09:28;;;;;;;;;;;16.30;99.90;;;;;;6248212;22;20308;-86
2023/09/09 05:12:26;;;;;;;51.78;37.08;;;16.40;99.90;;;;;;6248706;22;19982;-86
2023/09/09 05:15:10;;;;;;;55.35;39.78;;;16.30;99.90;;;;;;6274986;22;20081;-86
2023/09/09 05:17:44;;;;;;;56.03;39.33;;;16.40;99.90;;;;;;6276948;22;20028;-86
2023/09/09 05:20:28;;;;;;;52.80;39.72;;;16.40;99.90;;;;;;6273872;22;20019;-86
2023/09/09 05:23:21;;;;;;;;;;;;;;;;;;;;;
2023/09/09 05:26:32;;;;;;;49.25;36.35;;;16.40;99.90;;;;;;6077456;23;20029;-86
2023/09/09 05:29:49;;;;;;;48.75;36.15;;;16.40;99.90;;;;;;6280884;22;20029;-86
2023/09/09 05:33:05;;;;;;;48.67;36.65;;;16.50;99.90;;;;;;6306494;22;20512;-86
2023/09/09 05:35:33;;;;;;;52.03;36.97;;;16.40;99.90;;;;;;6279179;22;20057;-86
2023/09/09 05:38:01;;;;;;;50.58;37.03;;;16.50;99.90;;;;;;6278344;22;20097;-86
2023/09/09 05:40:42;;;;;;;50.80;37.30;;;16.50;99.90;;;;;;6279452;22;20454;-86
2023/09/09 05:43:29;;;;;;;52.00;37.45;;;16.60;99.90;;;;;;6279467;22;20037;-86
2023/09/09 05:46:16;;;;;;;54.75;38.97;;;16.60;99.90;;;;;;6306532;22;20056;-86
2023/09/09 05:48:57;;;;;;;55.05;39.33;;;16.60;99.90;;;;;;6306975;22;20030;-86
2023/09/09 05:51:53;;;;;;;58.28;41.63;;;17.50;99.90;;;;;;6305961;22;20012;-86
2023/09/09 05:54:47;;;;;;;50.50;37.67;;;16.80;99.90;;;;;;6278652;22;20102;-86
2023/09/09 05:57:35;;;;;;;;;;;;;;;;;;;;;
2023/09/09 06:00:41;;;;;;;;;;;;;;;;;;;;;
2023/09/09 06:03:31;;;;;;;52.50;38.42;;;17.00;99.90;;;;;;6212561;23;20031;-86
2023/09/09 06:06:31;;;;;;;52.15;39.15;;;17.10;99.90;;;;;;6210516;23;20015;-86
2023/09/09 06:09:12;;;;;;;;;;;;;;;;;;;;;
2023/09/09 06:15:28;;;;;;;51.88;37.33;;;17.30;99.90;;;;;;6089753;23;20467;-85
2023/09/09 06:30:56;;;;;;;42.22;33.30;;;17.90;99.90;;;;;;6303396;22;20088;-84
2023/09/09 06:33:25;;;;;;;44.72;33.80;;;18.00;99.90;;;;;;6308065;22;20015;-86
2023/09/09 06:35:54;;;;;;;42.22;32.63;;;18.10;99.90;;;;;;6307817;22;20094;-85
2023/09/09 06:38:26;;;;;;;40.60;31.48;;;18.60;99.90;;;;;;6309306;22;20098;-86
2023/09/09 06:41:29;;;;;;;42.40;32.53;;;18.20;99.90;;;;;;6308072;22;20098;-85
2023/09/09 06:50:34;;;;;;;39.65;30.30;;;18.60;99.90;;;;;;6277194;22;20019;-86
2023/09/09 06:53:08;;;;;;;41.75;30.02;;;18.70;99.90;;;;;;6275325;22;20019;-85
2023/09/09 06:55:49;;;;;;;;;;;;;;;;;;;;;
2023/09/09 06:59:35;;;;;;;40.42;30.52;;;18.80;99.90;;;;;;6242294;22;20012;-85
2023/09/09 07:02:12;;;;;;;37.15;29.63;;;19.00;99.90;;;;;;6276744;22;20016;-84
2023/09/09 07:04:55;;;;;;;;;;;;;;;;;;;;;
2023/09/09 07:07:48;;;;;;;35.25;27.75;;;19.40;99.90;;;;;;6209304;22;20670;-83
2023/09/09 07:10:16;;;;;;;34.97;27.23;;;19.50;99.90;;;;;;6224221;22;20454;-83
2023/09/09 07:13:06;;;;;;;36.17;27.25;;;19.80;99.90;;;;;;6275240;22;20387;-83
2023/09/09 07:15:38;;;;;;;34.10;25.63;;;19.60;99.90;;;;;;6274403;22;20102;-83
2023/09/09 07:18:04;;;;;;;35.83;25.75;;;19.80;99.90;;;;;;6275802;22;20343;-84
2023/09/09 07:20:32;;;;;;;33.70;23.42;;;20.10;99.90;;;;;;6276896;22;20091;-83
2023/09/09 07:27:20;;;;;;;29.42;24.60;;;20.30;99.90;;;;;;6276867;22;20098;-83
2023/09/09 07:36:47;;;;;;;;;;;;;;;;;;;;;
2023/09/09 07:43:32;;;;;;;34.75;25.48;;;20.60;99.90;;;;;;6077340;23;20031;-84
2023/09/09 07:50:05;;;;;;;31.85;25.05;;;20.40;99.90;;;;;;6169931;23;20055;-82
2023/09/09 07:52:36;;;;;;;36.05;25.08;;;21.20;99.90;;;;;;6213015;23;20074;-82
2023/09/09 07:55:17;;;;;;;30.67;23.88;;;21.30;99.90;;;;;;6212123;23;20070;-82
2023/09/09 07:57:45;;;;;;;30.58;24.42;;;21.40;99.90;;;;;;6186363;23;20024;-83
2023/09/09 08:00:31;;;;;;;32.00;24.98;;;21.50;99.90;;;;;;6186576;23;20013;-83
2023/09/09 08:03:19;;;;;;;30.48;24.38;;;21.50;99.90;;;;;;6185134;23;20393;-82
2023/09/09 08:05:47;;;;;;;30.80;24.30;;;21.60;99.90;;;;;;6186157;23;20364;-83
2023/09/09 08:08:29;;;;;;;30.70;24.35;;;21.70;99.90;;;;;;6187518;23;20056;-83
2023/09/09 08:10:55;;;;;;;31.88;24.25;;;21.70;99.90;;;;;;6247433;22;20025;-83
2023/09/09 08:13:20;;;;;;;31.33;24.98;;;21.90;99.90;;;;;;6273643;22;20015;-83
2023/09/09 08:15:57;;;;;;;;;;;;;;;;;;;;;
2023/09/09 08:18:29;;;;;;;30.10;23.42;;;22.10;99.90;;;;;;6267359;22;20016;-83
2023/09/09 08:20:55;;;;;;;31.52;22.13;;;22.20;99.90;;;;;;6276270;22;20325;-82
2023/09/09 08:23:22;;;;;;;30.48;23.70;;;22.30;99.90;;;;;;6276921;22;20008;-83
2023/09/09 08:26:05;;;;;;;28.25;22.05;;;22.50;99.90;;;;;;6274496;22;20012;-83
2023/09/09 08:28:48;;;;;;;30.42;22.88;;;22.60;99.90;;;;;;6274654;22;20015;-83
2023/09/09 08:31:13;;;;;;;29.77;22.27;;;22.70;99.90;;;;;;6274181;22;20019;-82
2023/09/09 08:34:16;;;;;;;32.10;24.20;;;22.80;99.90;;;;;;6275110;22;20016;-82
2023/09/09 08:36:42;;;;;;;30.35;23.58;;;22.90;99.90;;;;;;6274044;22;20083;-82
2023/09/09 08:39:10;;;;;;;33.83;24.63;;;22.90;99.90;;;;;;6274679;22;20012;-82
2023/09/09 08:42:02;;;;;;;29.60;23.48;;;23.10;99.90;;;;;;6273553;22;20016;-82
2023/09/09 08:44:59;;;;;;;29.60;23.58;;;23.10;99.90;;;;;;6274794;22;20336;-82
2023/09/09 08:47:36;;;;;;;29.65;22.48;;;23.20;99.90;;;;;;6273675;22;20050;-83
2023/09/09 08:50:05;;;;;;;29.77;22.77;;;23.40;99.90;;;;;;6276300;22;20317;-82
2023/09/09 08:52:31;;;;;;;28.40;22.00;;;23.50;99.90;;;;;;6274195;22;20026;-82
2023/09/09 08:55:13;;;;;;;29.45;22.67;;;23.50;99.90;;;;;;6275060;22;20007;-82
2023/09/09 08:57:39;;;;;;;29.30;22.42;;;23.60;99.90;;;;;;6274573;22;20022;-83
2023/09/09 09:00:14;;;;;;;29.90;21.98;;;23.70;99.90;;;;;;6273237;22;20419;-82
2023/09/09 09:02:48;;;;;;;29.15;22.58;;;23.70;99.90;;;;;;6272249;22;20019;-82
2023/09/09 09:09:10;;;;;;;28.05;22.52;;;23.90;99.90;;;;;;6270865;22;20031;-82
2023/09/09 09:15:09;;;;;;;;;;;;;;;;;;;;;
2023/09/09 09:18:17;;;;;;;30.92;20.30;;;24.30;99.90;;;;;;6233497;22;20038;-84
2023/09/09 09:20:49;;;;;;;25.52;20.17;;;24.50;99.90;;;;;;6275361;22;20019;-84
